createdAt,value
2019-03-05T00:01:17.084Z,99.90
2019-03-05T00:03:48.080Z,99.30
2019-03-05T00:06:19.782Z,99.30
2019-03-05T00:08:49.680Z,99.90
2019-03-05T00:11:19.609Z,99.90
2019-03-05T00:13:49.601Z,99.90
2019-03-05T00:16:19.172Z,99.90
2019-03-05T00:18:50.783Z,99.90
2019-03-05T00:21:20.854Z,99.90
2019-03-05T00:24:06.395Z,99.90
2019-03-05T00:26:36.967Z,99.50
2019-03-05T00:29:18.855Z,99.90
2019-03-05T00:31:48.639Z,99.80
2019-03-05T00:34:51.399Z,99.50
2019-03-05T00:37:57.781Z,99.60
2019-03-05T00:40:51.879Z,99.90
2019-03-05T00:43:54.880Z,99.90
2019-03-05T00:47:06.195Z,99.90
2019-03-05T00:50:13.435Z,99.60
2019-03-05T00:53:20.724Z,99.90
2019-03-05T00:56:31.043Z,99.90
2019-03-05T00:59:31.203Z,99.90
2019-03-05T01:02:16.812Z,99.90
2019-03-05T01:05:15.758Z,99.90
2019-03-05T01:07:45.367Z,99.90
2019-03-05T01:10:16.903Z,99.70
2019-03-05T01:12:47.880Z,99.70
2019-03-05T01:15:17.815Z,99.50
2019-03-05T01:17:48.471Z,99.90
2019-03-05T01:20:18.156Z,98.60
2019-03-05T01:22:48.947Z,99.90
2019-03-05T01:25:31.431Z,99.80
2019-03-05T01:28:02.188Z,98.90
2019-03-05T01:31:05.426Z,99.90
2019-03-05T01:33:40.921Z,99.80
2019-03-05T01:36:17.148Z,98.80
2019-03-05T01:38:54.006Z,98.70
2019-03-05T01:41:23.663Z,98.90
2019-03-05T01:43:53.511Z,97.30
2019-03-05T01:46:23.075Z,99.20
2019-03-05T01:48:53.503Z,98.20
2019-03-05T01:51:23.078Z,99.20
2019-03-05T01:53:54.007Z,98.90
2019-03-05T01:56:25.443Z,98.70
2019-03-05T01:58:55.756Z,98.70
2019-03-05T02:01:26.965Z,99.90
2019-03-05T02:03:57.759Z,98.70
2019-03-05T02:06:30.586Z,97.90
2019-03-05T02:09:00.586Z,99.90
2019-03-05T02:11:32.635Z,99.20
2019-03-05T02:14:02.539Z,99.90
2019-03-05T02:16:34.169Z,98.80
2019-03-05T02:19:53.263Z,98.50
2019-03-05T02:22:32.146Z,97.70
2019-03-05T02:25:25.974Z,98.50
2019-03-05T02:28:11.169Z,99.00
2019-03-05T02:31:27.884Z,99.90
2019-03-05T02:34:06.123Z,99.90
2019-03-05T02:37:05.793Z,98.90
2019-03-05T02:39:50.704Z,99.30
2019-03-05T02:42:45.891Z,99.70
2019-03-05T02:45:56.031Z,99.90
2019-03-05T02:49:21.822Z,99.60
2019-03-05T02:52:44.387Z,99.90
2019-03-05T02:55:55.348Z,99.90
2019-03-05T02:58:23.191Z,99.90
2019-03-05T03:01:20.844Z,99.90
2019-03-05T03:03:54.009Z,99.90
2019-03-05T03:06:29.331Z,99.90
2019-03-05T03:09:52.332Z,99.90
2019-03-05T03:12:23.237Z,99.90
2019-03-05T03:14:52.934Z,99.90
2019-03-05T03:17:24.243Z,99.70
2019-03-05T03:19:54.026Z,99.70
2019-03-05T03:22:23.788Z,99.50
2019-03-05T03:34:50.920Z,99.90
2019-03-05T03:37:21.047Z,99.90
2019-03-05T03:39:50.814Z,99.90
2019-03-05T03:42:22.100Z,99.50
2019-03-05T03:44:54.656Z,99.90
2019-03-05T03:47:25.397Z,98.90
2019-03-05T03:49:55.067Z,99.20
2019-03-05T03:54:54.922Z,99.90
2019-03-05T03:57:25.051Z,99.90
2019-03-05T03:59:54.796Z,99.90
2019-03-05T04:02:24.377Z,98.30
2019-03-05T04:04:53.999Z,99.80
2019-03-05T04:07:23.625Z,98.80
2019-03-05T04:09:53.320Z,97.90
2019-03-05T04:14:53.595Z,99.90
2019-03-05T04:17:24.682Z,99.90
2019-03-05T04:19:55.330Z,99.90
2019-03-05T04:22:25.003Z,99.90
2019-03-05T04:24:55.233Z,98.60
2019-03-05T04:27:25.860Z,97.80
2019-03-05T04:32:24.737Z,96.70
2019-03-05T04:34:55.614Z,99.60
2019-03-05T04:39:54.394Z,99.90
2019-03-05T04:42:24.079Z,98.00
2019-03-05T04:45:06.135Z,99.10
2019-03-05T04:47:35.859Z,99.90
2019-03-05T04:50:27.507Z,97.60
2019-03-05T04:55:30.850Z,99.70
2019-03-05T04:58:00.372Z,99.50
2019-03-05T05:00:31.171Z,99.90
2019-03-05T05:03:01.000Z,99.90
2019-03-05T05:05:30.895Z,99.90
2019-03-05T05:08:00.572Z,99.90
2019-03-05T05:10:30.856Z,99.90
2019-03-05T05:13:00.592Z,99.90
2019-03-05T05:15:31.884Z,99.90
2019-03-05T05:18:02.104Z,99.40
2019-03-05T05:20:33.403Z,99.90
2019-03-05T05:23:05.610Z,99.80
2019-03-05T05:25:35.579Z,99.60
2019-03-05T05:28:05.403Z,99.90
2019-03-05T05:30:39.438Z,99.80
2019-03-05T05:33:09.577Z,99.90
2019-03-05T05:35:39.399Z,99.30
2019-03-05T05:38:09.127Z,99.90
2019-03-05T05:40:41.898Z,99.10
2019-03-05T05:43:16.964Z,99.90
2019-03-05T05:45:48.251Z,99.90
2019-03-05T05:48:19.688Z,98.80
2019-03-05T05:53:18.664Z,98.70
2019-03-05T05:55:48.368Z,99.20
2019-03-05T05:58:18.045Z,98.80
2019-03-05T06:00:51.221Z,99.50
2019-03-05T06:03:20.975Z,99.90
2019-03-05T06:05:52.590Z,99.80
2019-03-05T06:08:23.259Z,99.90
2019-03-05T06:10:53.371Z,99.90
2019-03-05T06:13:23.139Z,99.60
2019-03-05T06:15:52.738Z,99.80
2019-03-05T06:18:22.876Z,99.80
2019-03-05T06:20:52.859Z,99.90
2019-03-05T06:23:26.319Z,99.90
2019-03-05T06:25:56.043Z,99.90
2019-03-05T06:28:27.356Z,99.90
2019-03-05T06:30:57.220Z,99.90
2019-03-05T06:33:26.998Z,99.90
2019-03-05T06:38:28.616Z,99.90
2019-03-05T06:41:00.047Z,99.90
2019-03-05T06:43:29.755Z,99.90
2019-03-05T06:46:01.187Z,99.90
2019-03-05T06:48:30.754Z,99.90
2019-03-05T06:51:00.764Z,99.90
2019-03-05T06:53:30.501Z,99.90
2019-03-05T06:56:00.342Z,99.90
2019-03-05T07:03:29.962Z,99.50
2019-03-05T07:06:35.239Z,99.90
2019-03-05T07:09:13.775Z,99.90
2019-03-05T07:12:20.743Z,99.90
2019-03-05T07:15:34.043Z,99.90
2019-03-05T07:18:27.532Z,99.90
2019-03-05T07:21:38.444Z,99.90
2019-03-05T07:24:49.055Z,99.90
2019-03-05T07:27:41.330Z,99.90
2019-03-05T07:30:27.099Z,99.90
2019-03-05T07:32:58.255Z,99.90
2019-03-05T07:35:31.843Z,99.90
2019-03-05T07:38:01.527Z,99.90
2019-03-05T07:40:31.454Z,99.90
2019-03-05T07:43:02.627Z,99.90
2019-03-05T07:45:32.563Z,99.90
2019-03-05T07:48:03.343Z,99.90
2019-03-05T07:50:33.037Z,99.90
2019-03-05T07:53:03.037Z,99.90
2019-03-05T07:55:32.732Z,99.90
2019-03-05T07:58:02.614Z,99.90
2019-03-05T08:00:34.123Z,99.90
2019-03-05T08:03:03.731Z,99.90
2019-03-05T08:05:33.618Z,99.90
2019-03-05T08:08:39.101Z,99.90
2019-03-05T08:11:10.706Z,99.90
2019-03-05T08:14:13.051Z,99.90
2019-03-05T08:16:43.131Z,99.90
2019-03-05T08:19:12.850Z,99.90
2019-03-05T08:21:42.499Z,99.90
2019-03-05T08:24:12.311Z,99.90
2019-03-05T08:29:11.508Z,99.90
2019-03-05T08:31:41.401Z,99.90
2019-03-05T08:34:11.126Z,99.90
2019-03-05T08:36:44.781Z,99.90
2019-03-05T08:39:14.923Z,99.90
2019-03-05T08:41:44.664Z,99.90
2019-03-05T08:44:14.324Z,99.90
2019-03-05T08:46:43.920Z,99.90
2019-03-05T08:49:14.697Z,99.90
2019-03-05T08:51:44.242Z,99.90
2019-03-05T08:54:13.875Z,99.90
2019-03-05T08:56:43.402Z,99.60
2019-03-05T08:59:13.119Z,99.80
2019-03-05T09:01:42.931Z,99.90
2019-03-05T09:04:12.721Z,99.90
2019-03-05T09:06:42.340Z,99.90
2019-03-05T09:09:14.175Z,99.90
2019-03-05T09:11:44.429Z,99.90
2019-03-05T09:14:14.093Z,99.90
2019-03-05T09:16:43.993Z,99.90
2019-03-05T09:19:13.761Z,99.90
2019-03-05T09:21:43.491Z,99.90
2019-03-05T09:24:13.179Z,99.90
2019-03-05T09:26:50.809Z,99.90
2019-03-05T09:36:50.423Z,99.90
2019-03-05T09:39:14.039Z,99.90
2019-03-05T09:41:44.072Z,99.90
2019-03-05T09:44:15.752Z,99.90
2019-03-05T09:46:45.484Z,99.90
2019-03-05T09:49:16.367Z,99.90
2019-03-05T09:51:46.190Z,99.00
2019-03-05T09:54:16.020Z,97.80
2019-03-05T09:56:45.743Z,98.80
2019-03-05T09:59:15.428Z,98.70
2019-03-05T10:01:46.882Z,98.20
2019-03-05T10:04:18.408Z,97.80
2019-03-05T10:06:48.076Z,97.90
2019-03-05T10:09:17.953Z,96.20
2019-03-05T10:11:47.543Z,96.80
2019-03-05T10:14:18.955Z,98.20
2019-03-05T10:16:48.671Z,95.70
2019-03-05T10:19:18.271Z,97.00
2019-03-05T10:21:48.419Z,95.50
2019-03-05T10:24:18.163Z,96.70
2019-03-05T10:26:49.999Z,95.60
2019-03-05T10:29:22.820Z,97.70
2019-03-05T10:31:52.416Z,95.20
2019-03-05T10:34:22.968Z,96.00
2019-03-05T10:36:55.102Z,94.80
2019-03-05T10:39:31.046Z,94.70
2019-03-05T10:42:00.192Z,95.00
2019-03-05T10:44:29.860Z,95.60
2019-03-05T10:47:01.023Z,97.70
2019-03-05T10:49:32.468Z,96.30
2019-03-05T10:52:03.330Z,93.20
2019-03-05T10:54:34.609Z,93.60
2019-03-05T10:57:04.139Z,95.10
2019-03-05T10:59:34.879Z,93.80
2019-03-05T11:02:04.540Z,95.50
2019-03-05T11:04:45.251Z,93.80
2019-03-05T11:07:05.572Z,96.00
2019-03-05T11:09:35.524Z,92.00
2019-03-05T11:12:06.322Z,95.10
2019-03-05T11:14:39.219Z,95.90
2019-03-05T11:17:09.007Z,95.40
2019-03-05T11:19:38.749Z,95.70
2019-03-05T11:22:09.007Z,94.00
2019-03-05T11:24:39.687Z,95.60
2019-03-05T11:27:09.664Z,95.70
2019-03-05T11:29:39.236Z,94.60
2019-03-05T11:32:10.739Z,93.20
2019-03-05T11:34:41.937Z,92.50
2019-03-05T11:37:13.734Z,93.60
2019-03-05T11:39:43.241Z,92.90
2019-03-05T11:42:14.448Z,92.50
2019-03-05T11:44:58.874Z,95.20
2019-03-05T11:47:16.163Z,90.90
2019-03-05T11:49:47.771Z,92.10
2019-03-05T11:52:17.320Z,94.80
2019-03-05T11:54:48.627Z,93.50
2019-03-05T11:57:18.179Z,93.10
2019-03-05T11:59:49.721Z,92.30
2019-03-05T12:02:21.947Z,94.40
2019-03-05T12:04:51.868Z,93.10
2019-03-05T12:07:23.207Z,92.40
2019-03-05T12:09:53.989Z,93.70
2019-03-05T12:12:23.547Z,93.60
2019-03-05T12:14:53.656Z,95.30
2019-03-05T12:17:23.327Z,92.70
2019-03-05T12:19:53.405Z,97.50
2019-03-05T12:22:23.138Z,93.50
2019-03-05T12:24:52.858Z,91.40
2019-03-05T12:27:22.550Z,92.80
2019-03-05T12:29:52.277Z,97.00
2019-03-05T12:32:23.593Z,93.50
2019-03-05T12:34:53.189Z,95.50
2019-03-05T12:37:22.928Z,95.50
2019-03-05T12:39:52.482Z,96.10
2019-03-05T12:42:22.204Z,96.60
2019-03-05T12:44:52.165Z,93.60
2019-03-05T12:47:21.878Z,94.50
2019-03-05T12:49:51.584Z,92.30
2019-03-05T12:52:23.125Z,92.30
2019-03-05T12:54:56.318Z,86.80
2019-03-05T12:57:26.252Z,91.10
2019-03-05T12:59:56.095Z,94.00
2019-03-05T13:02:25.754Z,92.90
2019-03-05T13:04:55.489Z,96.00
2019-03-05T13:07:25.076Z,92.60
2019-03-05T13:09:56.949Z,94.80
2019-03-05T13:12:26.538Z,96.10
2019-03-05T13:14:58.079Z,90.80
2019-03-05T13:17:27.698Z,90.30
2019-03-05T13:20:00.375Z,91.80
2019-03-05T13:22:30.675Z,91.10
2019-03-05T13:25:03.751Z,93.10
2019-03-05T13:27:33.351Z,93.30
2019-03-05T13:30:06.360Z,92.10
2019-03-05T13:32:37.967Z,92.10
2019-03-05T13:35:09.841Z,92.90
2019-03-05T13:37:40.715Z,89.80
2019-03-05T13:40:14.430Z,90.80
2019-03-05T13:42:44.111Z,94.50
2019-03-05T13:45:14.091Z,88.20
2019-03-05T13:47:47.343Z,89.90
2019-03-05T13:50:53.535Z,88.90
2019-03-05T13:53:47.256Z,86.60
2019-03-05T13:56:57.867Z,94.80
2019-03-05T13:59:50.504Z,89.30
2019-03-05T14:02:22.953Z,90.60
2019-03-05T14:05:33.935Z,88.10
2019-03-05T14:08:25.613Z,88.60
2019-03-05T14:10:57.172Z,91.40
2019-03-05T14:13:26.701Z,92.40
2019-03-05T14:15:56.321Z,93.30
2019-03-05T14:18:26.085Z,93.50
2019-03-05T14:20:55.687Z,94.80
2019-03-05T14:23:25.525Z,91.00
2019-03-05T14:25:57.688Z,90.80
2019-03-05T14:28:27.380Z,84.30
2019-03-05T14:30:57.101Z,84.10
2019-03-05T14:33:26.936Z,91.80
2019-03-05T14:35:57.273Z,82.80
2019-03-05T14:38:27.988Z,93.30
2019-03-05T14:40:58.137Z,91.60
2019-03-05T14:43:28.400Z,88.40
2019-03-05T14:45:59.100Z,94.60
2019-03-05T14:48:29.192Z,91.40
2019-03-05T14:51:00.064Z,91.30
2019-03-05T14:53:29.665Z,93.20
2019-03-05T14:56:01.515Z,89.40
2019-03-05T14:58:31.654Z,83.10
2019-03-05T15:01:01.252Z,90.10
2019-03-05T15:03:30.981Z,93.50
2019-03-05T15:06:01.898Z,93.20
2019-03-05T15:13:30.466Z,83.60
2019-03-05T15:16:00.908Z,80.00
2019-03-05T15:18:30.520Z,83.40
2019-03-05T15:23:29.863Z,86.70
2019-03-05T15:26:00.102Z,86.50
2019-03-05T15:28:30.746Z,93.50
2019-03-05T15:43:29.522Z,82.00
2019-03-05T15:46:00.227Z,92.30
2019-03-05T15:50:59.696Z,83.20
2019-03-05T15:53:31.251Z,83.40
2019-03-05T16:00:59.266Z,92.80
2019-03-05T16:03:31.313Z,77.10
2019-03-05T16:06:01.372Z,91.90
2019-03-05T16:08:32.509Z,85.00
2019-03-05T16:11:03.479Z,90.20
2019-03-05T16:13:33.199Z,71.90
2019-03-05T16:16:03.150Z,90.20
2019-03-05T16:18:32.911Z,80.90
2019-03-05T16:21:06.730Z,92.00
2019-03-05T16:23:36.023Z,86.20
2019-03-05T16:28:34.589Z,92.90
2019-03-05T16:31:29.848Z,81.50
2019-03-05T16:34:18.384Z,90.50
2019-03-05T16:37:01.976Z,85.50
2019-03-05T16:42:54.611Z,92.20
2019-03-05T16:45:50.494Z,90.10
2019-03-05T16:48:48.531Z,86.70
2019-03-05T16:51:41.066Z,81.80
2019-03-05T16:57:28.172Z,94.50
2019-03-05T17:03:13.840Z,90.40
2019-03-05T17:05:59.493Z,87.80
2019-03-05T17:08:47.897Z,91.80
2019-03-05T17:11:48.475Z,91.50
2019-03-05T17:14:20.126Z,90.20
2019-03-05T17:16:51.308Z,85.20
2019-03-05T17:19:21.103Z,86.70
2019-03-05T17:21:52.968Z,88.40
2019-03-05T17:24:24.199Z,90.30
2019-03-05T17:26:56.711Z,87.50
2019-03-05T17:29:26.969Z,86.10
2019-03-05T17:31:56.703Z,85.50
2019-03-05T17:34:26.503Z,85.50
2019-03-05T17:36:56.035Z,87.00
2019-03-05T17:39:26.911Z,86.70
2019-03-05T17:41:56.803Z,85.40
2019-03-05T17:44:28.495Z,85.80
2019-03-05T17:46:58.594Z,86.00
2019-03-05T17:49:28.267Z,82.90
2019-03-05T17:51:57.951Z,76.50
2019-03-05T17:54:27.660Z,86.80
2019-03-05T17:56:57.324Z,85.80
2019-03-05T17:59:28.046Z,85.00
2019-03-05T18:01:59.903Z,84.60
2019-03-05T18:04:31.399Z,84.70
2019-03-05T18:07:02.433Z,83.30
2019-03-05T18:09:32.704Z,81.20
2019-03-05T18:12:02.280Z,85.20
2019-03-05T18:14:34.222Z,84.70
2019-03-05T18:17:05.334Z,85.30
2019-03-05T18:19:34.907Z,84.30
2019-03-05T18:22:04.571Z,81.80
2019-03-05T18:24:35.923Z,86.70
2019-03-05T18:27:08.695Z,86.80
2019-03-05T18:29:38.691Z,88.30
2019-03-05T18:32:08.418Z,87.80
2019-03-05T18:34:40.595Z,86.20
2019-03-05T18:37:10.365Z,89.70
2019-03-05T18:39:40.975Z,86.50
2019-03-05T18:42:11.490Z,86.70
2019-03-05T18:44:41.222Z,88.50
2019-03-05T18:47:10.989Z,88.30
2019-03-05T18:49:40.893Z,87.30
2019-03-05T18:52:11.747Z,84.90
2019-03-05T18:54:42.936Z,84.80
2019-03-05T18:57:12.723Z,84.30
2019-03-05T18:59:42.339Z,84.40
2019-03-05T19:02:12.502Z,78.20
2019-03-05T19:04:42.624Z,87.50
2019-03-05T19:07:12.304Z,86.40
2019-03-05T19:09:42.639Z,86.90
2019-03-05T19:12:13.999Z,88.90
2019-03-05T19:14:44.683Z,85.70
2019-03-05T19:17:14.259Z,86.70
2019-03-05T19:19:44.985Z,88.80
2019-03-05T19:22:15.239Z,83.30
2019-03-05T19:24:44.793Z,85.80
2019-03-05T19:27:25.691Z,87.40
2019-03-05T19:29:47.560Z,86.10
2019-03-05T19:32:18.051Z,84.50
2019-03-05T19:34:47.943Z,83.80
2019-03-05T19:37:17.975Z,82.80
2019-03-05T19:39:49.596Z,83.30
2019-03-05T19:42:22.467Z,77.80
2019-03-05T19:44:53.419Z,85.10
2019-03-05T19:47:23.315Z,83.70
2019-03-05T19:49:52.847Z,82.80
2019-03-05T19:52:22.687Z,84.20
2019-03-05T19:54:52.579Z,81.40
2019-03-05T19:57:22.634Z,85.60
2019-03-05T19:59:54.051Z,86.10
2019-03-05T20:02:24.629Z,85.10
2019-03-05T20:04:54.223Z,84.10
2019-03-05T20:07:23.878Z,84.30
2019-03-05T20:09:53.825Z,82.70
2019-03-05T20:12:24.179Z,81.10
2019-03-05T20:14:55.604Z,82.60
2019-03-05T20:17:25.191Z,83.50
2019-03-05T20:19:54.881Z,82.10
2019-03-05T20:22:24.439Z,83.30
2019-03-05T20:24:55.120Z,83.20
2019-03-05T20:27:25.059Z,82.90
2019-03-05T20:29:55.716Z,82.30
2019-03-05T20:32:27.879Z,82.90
2019-03-05T20:34:58.114Z,82.90
2019-03-05T20:37:27.892Z,82.60
2019-03-05T20:39:57.663Z,82.00
2019-03-05T20:42:30.427Z,80.60
2019-03-05T20:45:01.627Z,82.10
2019-03-05T20:47:32.607Z,81.70
2019-03-05T20:50:02.529Z,83.20
2019-03-05T20:52:32.147Z,83.20
2019-03-05T20:55:02.034Z,79.40
2019-03-05T20:57:33.515Z,83.60
2019-03-05T21:00:03.295Z,83.00
2019-03-05T21:02:33.051Z,80.20
2019-03-05T21:05:02.829Z,86.00
2019-03-05T21:07:34.144Z,84.80
2019-03-05T21:10:03.766Z,84.10
2019-03-05T21:12:33.424Z,81.80
2019-03-05T21:15:06.447Z,83.50
2019-03-05T21:17:36.136Z,81.30
2019-03-05T21:20:10.007Z,84.00
2019-03-05T21:22:39.591Z,85.70
2019-03-05T21:25:10.314Z,85.60
2019-03-05T21:27:41.840Z,84.20
2019-03-05T21:30:16.865Z,82.00
2019-03-05T21:32:48.768Z,83.30
2019-03-05T21:35:18.510Z,85.70
2019-03-05T21:37:48.252Z,85.30
2019-03-05T21:40:19.995Z,86.10
2019-03-05T21:42:51.560Z,87.60
2019-03-05T21:45:27.059Z,85.20
2019-03-05T21:47:56.899Z,86.20
2019-03-05T21:50:26.589Z,84.30
2019-03-05T21:52:56.439Z,83.70
2019-03-05T21:55:27.606Z,86.40
2019-03-05T21:57:57.451Z,91.20
2019-03-05T22:00:28.702Z,89.40
2019-03-05T22:02:59.131Z,84.80
2019-03-05T22:05:29.568Z,86.30
2019-03-05T22:07:59.167Z,81.50
2019-03-05T22:10:29.019Z,84.20
2019-03-05T22:12:59.673Z,86.90
2019-03-05T22:15:29.307Z,88.50
2019-03-05T22:17:59.434Z,86.50
2019-03-05T22:32:59.483Z,84.60
2019-03-05T22:35:29.426Z,77.60
2019-03-05T22:37:59.325Z,77.40
2019-03-05T22:40:29.103Z,85.90
2019-03-05T22:42:59.903Z,84.30
2019-03-05T22:45:29.726Z,88.00
2019-03-05T22:48:00.407Z,87.40
2019-03-05T22:50:30.199Z,89.10
2019-03-05T22:52:59.875Z,85.50
2019-03-05T22:55:29.478Z,87.20
2019-03-05T22:57:59.483Z,90.10
2019-03-05T23:01:18.207Z,89.40
2019-03-05T23:03:55.930Z,86.90
2019-03-05T23:06:25.491Z,86.50
2019-03-05T23:08:57.988Z,90.50
2019-03-05T23:11:27.985Z,86.40
2019-03-05T23:13:58.834Z,82.10
2019-03-05T23:16:28.915Z,91.50
2019-03-05T23:18:59.065Z,90.10
2019-03-05T23:21:29.891Z,89.80
2019-03-05T23:23:59.647Z,88.80
2019-03-05T23:26:29.302Z,85.90
2019-03-05T23:28:59.052Z,91.70
2019-03-05T23:31:28.762Z,92.00
2019-03-05T23:34:00.615Z,91.40
2019-03-05T23:36:32.219Z,89.70
2019-03-05T23:39:01.894Z,87.70
2019-03-05T23:41:35.732Z,85.40
2019-03-05T23:44:08.053Z,88.30
2019-03-05T23:46:39.162Z,84.00
2019-03-05T23:49:08.783Z,81.60
2019-03-05T23:51:40.160Z,88.70
2019-03-05T23:54:09.903Z,87.40
2019-03-05T23:56:39.931Z,92.40
2019-03-05T23:59:09.637Z,88.70
